Weather at Cabrito Airport

Public forecast

Using degrees Fahrenheit for public forecast. Weather courtesy of forecast.io.

Closest aviation weather report (METAR) to Cabrito Airport

Closest report is Hamilton Municipal Airport, 15.4 nm (28.5 km) ENE. Retrieved 2022/08/13 18:35 UTC (10 minutes ago):

KMNZ 131835Z AUTO 10006KT 10SM SCT050 SCT070 SCT100 35/18 A3006 RMK AO2 T03540181

Closest aviation forecast (TAF) to Cabrito Airport

Closest forecast is Killeen-Fort Hood Regional Airport / Robert Gray Army Air Field, 42.4 nm (78.6 km) SE. Retrieved 2022/08/13 16:00 UTC (3 hours ago):

TAF KGRK 131600Z 1316/1422 06006KT 9999 FEW045 QNH2990INS BECMG 1323/1324 08010G15KT 9999 SCT065 QNH2997INS BECMG 1403/1404 12006KT 9999 FEW045 SCT065 QNH2999INS TX37/1321Z TN24/1411Z